Pagrindinis puslapis
METAR-TAF:

METAR-TAF

Oro uostai :

Santa Maria di Leuca

Castrignano del Capo, Italija

platuma: 39-49N, ilguma: 018-21E, Aukštis: 104 m

Dabartinis oras

Ataskaita buvo paskelbta 9 valandos ir 47 minutes, ne 17:55 UTC
Vėjas 7 kt iš Šiaurės
Temperatūra 10°C
Drėgmė 87%
Slėgis 1024 hPa
Matomumas 10 km arba daugiau
Mažai debesys ne aukštis 2000 ft

METAR: LIBY 171755Z 36007KT 9999 FEW020 10/08 Q1024 RMK FEW QUK / QUL / VIS MAR 10 KM VIS MIN 9999

Laikas: 04:42 (03:42 UTC)


TAF: trūkstamas

Orai ataskaitas ir orų prognozės (METAR, TAF).

turimą stotys yra geltonos ir raudonos taškus žemėlapyje.

Perkelti pele per norėdami pamatyti stoties vardą.

Tada spustelėkite, norėdami matyti oro stebėjimo ir prognozės.

Norėdami pakeisti žemėlapį: spustelėkite ant žalios mygtukų su juodo kryžiaus žemyn,; žalią mygtuką su brūkšneliu, jei norite nutolinti; arba žalių rodyklių gretimoms žemėlapius.


METAR-TAF: